Time;durP1;ratioP1;P1;durP2;ratioP2;P2;SDS_P1;SDS_P2;PMS_P1;PMS_P2;Temp;Humidity;BMP_temperature;BMP_pressure;BME280_temperature;BME280_humidity;BME280_pressure;Samples;Min_cycle;Max_cycle;Signal;HPM_P1;HPM_P2
2021/05/31 00:00:14;;;;;;;;;0.00;0.00;;;;;19.13;40.14;101500.97;5061753;28;45447;-61
2021/05/31 00:02:40;;;;;;;;;0.00;0.00;;;;;19.09;39.62;101498.78;5045214;28;45565;-61
2021/05/31 00:05:06;;;;;;;;;0.00;0.00;;;;;19.05;39.91;101499.13;5054004;28;45505;-61
2021/05/31 00:07:31;;;;;;;;;0.00;0.00;;;;;19.05;39.58;101498.28;5053181;28;45384;-60
2021/05/31 00:09:56;;;;;;;;;0.00;0.00;;;;;19.02;39.61;101495.91;5061318;28;45434;-60
2021/05/31 00:12:23;;;;;;;;;0.00;0.00;;;;;19.04;39.72;101499.25;5060889;28;45314;-60
2021/05/31 00:14:48;;;;;;;;;0.00;0.00;;;;;19.04;39.29;101493.94;5061070;28;46216;-61
2021/05/31 00:17:14;;;;;;;;;0.00;0.00;;;;;19.01;39.48;101484.44;5061032;28;45479;-61
2021/05/31 00:19:41;;;;;;;;;0.00;0.00;;;;;18.99;39.65;101493.59;5061370;28;45693;-61
2021/05/31 00:22:07;;;;;;;;;0.00;0.00;;;;;18.94;40.29;101491.41;5061170;28;45275;-59
2021/05/31 00:24:33;;;;;;;;;0.00;0.00;;;;;18.87;40.38;101484.16;5060523;28;45606;-61
2021/05/31 00:26:59;;;;;;;;;0.00;0.00;;;;;18.86;40.62;101486.00;5060710;28;45369;-61
2021/05/31 00:29:24;;;;;;;;;0.00;0.00;;;;;18.81;40.33;101483.81;5061195;28;45260;-59
2021/05/31 00:31:51;;;;;;;;;0.00;0.00;;;;;18.82;39.96;101488.13;5061441;28;45376;-59
2021/05/31 00:34:17;;;;;;;;;0.00;0.00;;;;;18.77;40.55;101485.06;5060986;28;46315;-61
2021/05/31 00:36:43;;;;;;;;;0.00;0.00;;;;;18.71;40.41;101480.38;5061324;28;45314;-62
2021/05/31 00:39:08;;;;;;;;;0.00;0.00;;;;;18.73;40.45;101486.38;5059512;28;45380;-60
2021/05/31 00:41:33;;;;;;;;;0.00;0.00;;;;;18.68;40.33;101475.34;5061541;28;45536;-62
2021/05/31 00:43:59;;;;;;;;;0.00;0.00;;;;;18.66;40.37;101474.69;5060674;28;46068;-59
2021/05/31 00:46:25;;;;;;;;;0.00;0.00;;;;;18.67;40.75;101483.50;5040360;28;45336;-61
2021/05/31 00:48:51;;;;;;;;;0.00;0.00;;;;;18.62;40.13;101476.81;5057588;28;45410;-60
2021/05/31 00:51:16;;;;;;;;;0.00;0.00;;;;;18.61;40.72;101479.59;5060989;28;45615;-59
2021/05/31 00:53:42;;;;;;;;;0.00;0.00;;;;;18.56;41.40;101480.06;5034322;28;45887;-60
2021/05/31 00:56:07;;;;;;;;;0.00;0.00;;;;;18.54;41.26;101476.72;5056801;28;45295;-60
2021/05/31 00:58:33;;;;;;;;;0.00;0.00;;;;;18.50;40.71;101474.53;5060649;28;45409;-60
2021/05/31 01:01:01;;;;;;;;;0.00;0.00;;;;;18.44;41.19;101470.66;5060608;28;45366;-62
2021/05/31 01:03:27;;;;;;;;;0.00;0.00;;;;;18.42;41.39;101472.63;5057975;28;45385;-62
2021/05/31 01:05:55;;;;;;;;;0.00;0.00;;;;;18.39;41.04;101472.94;5053171;28;45350;-61
2021/05/31 01:08:32;;;;;;;;;0.00;0.00;;;;;18.34;41.60;101476.06;5055718;28;46611;-60
2021/05/31 01:11:41;;;;;;;;;0.00;0.00;;;;;18.32;41.47;101471.88;5044869;28;45322;-60
2021/05/31 01:14:33;;;;;;;;;0.00;0.00;;;;;18.29;41.52;101466.84;5035980;28;46518;-60
2021/05/31 01:17:09;;;;;;;;;0.00;0.00;;;;;18.26;41.04;101467.19;5060691;28;45445;-59
2021/05/31 01:19:53;;;;;;;;;0.00;0.00;;;;;18.21;41.56;101464.97;5060491;28;45324;-60
2021/05/31 01:22:25;;;;;;;;;0.00;0.00;;;;;18.15;41.50;101462.91;5060489;28;45364;-62
2021/05/31 01:24:50;;;;;;;;;0.00;0.00;;;;;18.11;41.37;101464.19;5032146;28;46593;-60
2021/05/31 01:27:22;;;;;;;;;0.00;0.00;;;;;18.08;42.37;101467.13;5056639;28;45379;-61
2021/05/31 01:30:09;;;;;;;;;0.00;0.00;;;;;18.00;41.61;101462.59;5042431;28;45410;-62
2021/05/31 01:32:38;;;;;;;;;0.00;0.00;;;;;17.97;41.95;101458.41;5060103;28;45543;-62
2021/05/31 01:35:06;;;;;;;;;0.00;0.00;;;;;17.94;42.20;101458.69;5060329;28;46535;-63
2021/05/31 01:37:34;;;;;;;;;0.00;0.00;;;;;17.94;41.95;101461.34;5059989;28;45383;-60
2021/05/31 01:40:08;;;;;;;;;0.00;0.00;;;;;17.93;42.59;101459.69;5060151;28;45365;-62
2021/05/31 01:42:34;;;;;;;;;0.00;0.00;;;;;17.88;42.41;101453.16;5059830;28;45584;-60
2021/05/31 01:45:00;;;;;;;;;0.00;0.00;;;;;17.87;42.11;101456.81;5060306;28;45636;-62
2021/05/31 01:47:27;;;;;;;;;0.00;0.00;;;;;17.83;42.41;101448.28;5059992;28;45189;-60
2021/05/31 01:49:54;;;;;;;;;0.00;0.00;;;;;17.79;42.33;101444.22;5060686;28;45239;-60
2021/05/31 01:52:22;;;;;;;;;0.00;0.00;;;;;17.75;42.68;101443.72;5063727;28;45598;-61
2021/05/31 01:54:49;;;;;;;;;0.00;0.00;;;;;17.69;42.94;101438.97;5063192;28;46262;-61
2021/05/31 01:57:16;;;;;;;;;0.00;0.00;;;;;17.65;43.31;101428.81;5063291;28;45394;-59
2021/05/31 01:59:41;;;;;;;;;0.00;0.00;;;;;17.60;43.20;101443.38;5063519;28;45311;-60
2021/05/31 02:02:07;;;;;;;;;0.00;0.00;;;;;17.54;44.16;101438.63;5063751;28;45478;-61
2021/05/31 02:04:33;;;;;;;;;0.00;0.00;;;;;17.48;43.88;101438.41;5053390;28;45453;-60
2021/05/31 02:06:58;;;;;;;;;0.00;0.00;;;;;17.40;44.42;101442.59;5063634;28;45352;-61
2021/05/31 02:09:24;;;;;;;;;0.00;0.00;;;;;17.34;44.26;101434.38;5045401;28;45494;-61
2021/05/31 02:12:08;;;;;;;;;0.00;0.00;;;;;17.27;45.08;101436.78;5049276;28;45219;-62
2021/05/31 02:15:00;;;;;;;;;0.00;0.00;;;;;17.20;44.92;101438.34;5063106;28;46534;-61
2021/05/31 02:17:55;;;;;;;;;0.00;0.00;;;;;17.10;45.20;101432.25;5063303;28;45390;-60
2021/05/31 02:20:23;;;;;;;;;0.00;0.00;;;;;16.99;45.74;101425.28;5063381;28;45439;-64
2021/05/31 02:22:54;;;;;;;;;0.00;0.00;;;;;16.97;44.88;101429.91;5063218;28;45429;-62
2021/05/31 02:25:19;;;;;;;;;0.00;0.00;;;;;16.91;45.64;101428.69;5057219;28;46576;-60
2021/05/31 02:27:47;;;;;;;;;0.00;0.00;;;;;16.88;45.74;101433.44;5045023;28;45416;-60
2021/05/31 02:30:15;;;;;;;;;0.00;0.00;;;;;16.83;45.71;101441.00;5063520;28;45338;-61
2021/05/31 02:33:09;;;;;;;;;0.00;0.00;;;;;16.77;45.47;101434.41;5030724;28;45201;-62
2021/05/31 02:35:37;;;;;;;;;0.00;0.00;;;;;16.78;45.30;101431.59;5044827;28;47435;-62
2021/05/31 02:38:05;;;;;;;;;0.00;0.00;;;;;16.81;45.29;101428.69;5062665;28;45365;-62
2021/05/31 02:40:31;;;;;;;;;0.00;0.00;;;;;16.85;45.16;101442.50;5063255;28;45457;-62
2021/05/31 02:42:59;;;;;;;;;0.00;0.00;;;;;16.87;45.33;101437.91;5062911;28;45544;-61
2021/05/31 02:45:26;;;;;;;;;0.00;0.00;;;;;16.86;44.95;101435.38;5044783;28;48093;-61
2021/05/31 02:47:54;;;;;;;;;0.00;0.00;;;;;16.87;45.25;101437.03;5024634;28;45786;-61
2021/05/31 02:50:20;;;;;;;;;0.00;0.00;;;;;16.85;45.82;101434.56;5053262;28;45349;-61
2021/05/31 02:52:46;;;;;;;;;0.00;0.00;;;;;16.83;45.34;101438.34;5062711;28;45445;-61
2021/05/31 02:55:14;;;;;;;;;0.00;0.00;;;;;16.83;46.19;101438.34;5062406;28;46367;-61
2021/05/31 03:01:01;;;;;;;;;0.00;0.00;;;;;16.81;46.35;101444.59;5062472;28;45453;-60
2021/05/31 03:03:27;;;;;;;;;0.00;0.00;;;;;16.79;45.78;101438.56;5058858;28;45434;-60
2021/05/31 03:05:52;;;;;;;;;0.00;0.00;;;;;16.75;45.70;101444.31;5054929;28;45287;-60
2021/05/31 03:08:17;;;;;;;;;0.00;0.00;;;;;16.71;45.60;101445.56;5062206;28;45335;-62
2021/05/31 03:10:43;;;;;;;;;0.00;0.00;;;;;16.67;46.14;101444.19;5056295;28;45454;-60
2021/05/31 03:13:08;;;;;;;;;0.00;0.00;;;;;16.66;46.35;101453.13;5054861;28;45219;-60
2021/05/31 03:15:34;;;;;;;;;0.00;0.00;;;;;16.61;46.01;101445.59;5062245;28;45984;-61
2021/05/31 03:17:59;;;;;;;;;0.00;0.00;;;;;16.60;46.91;101443.91;5062224;28;45412;-61
2021/05/31 03:20:28;;;;;;;;;0.00;0.00;;;;;16.60;46.40;101443.91;5062502;28;45435;-61
2021/05/31 03:22:54;;;;;;;;;0.00;0.00;;;;;16.57;46.35;101447.69;5061985;28;45485;-61
2021/05/31 03:25:20;;;;;;;;;0.00;0.00;;;;;16.56;46.33;101445.16;5055972;28;45378;-61
2021/05/31 03:27:46;;;;;;;;;0.00;0.00;;;;;16.54;46.68;101447.13;5061877;28;45428;-62
2021/05/31 03:30:14;;;;;;;;;0.00;0.00;;;;;16.45;46.85;101451.44;5062313;28;45293;-62
2021/05/31 03:32:39;;;;;;;;;0.00;0.00;;;;;16.38;47.04;101450.34;5062032;28;45226;-62
2021/05/31 03:35:07;;;;;;;;;0.00;0.00;;;;;16.32;46.91;101458.84;5062075;28;45529;-61
2021/05/31 03:37:32;;;;;;;;;0.00;0.00;;;;;16.27;47.57;101458.44;5061644;28;45240;-62
2021/05/31 03:39:58;;;;;;;;;0.00;0.00;;;;;16.19;47.97;101459.13;5061633;28;45434;-62
2021/05/31 03:42:23;;;;;;;;;0.00;0.00;;;;;16.13;47.27;101449.06;5061832;28;45306;-60
2021/05/31 03:44:48;;;;;;;;;0.00;0.00;;;;;16.11;47.14;101465.13;5061611;28;45330;-61
2021/05/31 03:47:14;;;;;;;;;0.00;0.00;;;;;16.09;48.22;101460.91;5062051;28;45427;-61
2021/05/31 03:53:01;;;;;;;;;0.00;0.00;;;;;16.01;48.13;101466.09;5061892;28;45363;-61
2021/05/31 03:55:26;;;;;;;;;0.00;0.00;;;;;15.99;48.72;101463.56;5061705;28;46360;-61
2021/05/31 03:57:51;;;;;;;;;0.00;0.00;;;;;15.98;48.11;101464.53;5061687;28;45340;-60
2021/05/31 04:00:17;;;;;;;;;0.00;0.00;;;;;15.99;47.66;101468.88;5033356;28;45262;-61
2021/05/31 04:02:43;;;;;;;;;0.00;0.00;;;;;15.99;47.98;101474.16;5050599;28;45343;-61
2021/05/31 04:05:12;;;;;;;;;0.00;0.00;;;;;15.97;48.46;101469.00;5044528;28;46492;-61
2021/05/31 04:13:05;;;;;;;;;0.00;0.00;;;;;15.96;47.78;101467.31;5061212;28;45260;-61
2021/05/31 04:15:31;;;;;;;;;0.00;0.00;;;;;15.93;48.26;101464.94;5061077;28;45589;-61
2021/05/31 04:17:56;;;;;;;;;0.00;0.00;;;;;15.95;48.82;101467.47;5043156;28;45241;-61
2021/05/31 04:20:22;;;;;;;;;0.00;0.00;;;;;15.92;48.94;101457.97;5051877;28;45279;-62
2021/05/31 04:22:48;;;;;;;;;0.00;0.00;;;;;15.95;48.55;101468.28;5056957;28;45479;-61
2021/05/31 04:25:15;;;;;;;;;0.00;0.00;;;;;15.96;48.80;101463.81;5055480;28;46254;-61
2021/05/31 04:27:41;;;;;;;;;0.00;0.00;;;;;15.91;49.05;101458.94;5055689;28;45428;-60
2021/05/31 04:30:07;;;;;;;;;0.00;0.00;;;;;15.85;49.48;101456.00;5061236;28;45493;-61
2021/05/31 04:32:32;;;;;;;;;0.00;0.00;;;;;15.83;49.31;101460.59;5060856;28;45333;-61
2021/05/31 04:34:57;;;;;;;;;0.00;0.00;;;;;15.79;49.83;101460.03;5060410;28;45441;-61
2021/05/31 04:37:23;;;;;;;;;0.00;0.00;;;;;15.77;49.91;101454.03;5051257;28;45398;-61
2021/05/31 04:39:48;;;;;;;;;0.00;0.00;;;;;15.77;49.62;101459.34;5055862;28;45436;-61
2021/05/31 04:42:14;;;;;;;;;0.00;0.00;;;;;15.75;49.42;101455.97;5060622;28;45438;-60
2021/05/31 04:44:39;;;;;;;;;0.00;0.00;;;;;15.74;49.30;101457.81;5060946;28;45395;-60
2021/05/31 04:47:05;;;;;;;;;0.00;0.00;;;;;15.69;49.49;101454.66;5060194;28;45386;-60
2021/05/31 04:49:32;;;;;;;;;0.00;0.00;;;;;15.64;49.71;101454.25;5055007;28;45367;-60
2021/05/31 04:51:57;;;;;;;;;0.00;0.00;;;;;15.57;50.11;101451.31;5051401;28;45599;-61
2021/05/31 04:54:23;;;;;;;;;0.00;0.00;;;;;15.60;49.42;101458.13;5060207;28;46239;-61
2021/05/31 04:56:48;;;;;;;;;0.00;0.00;;;;;15.61;49.66;101458.97;5044891;28;46706;-61
2021/05/31 04:59:14;;;;;;;;;1.00;0.00;;;;;15.59;49.32;101452.00;5050967;28;45361;-62
2021/05/31 05:01:40;;;;;;;;;0.00;0.00;;;;;15.62;49.51;101458.84;5053416;28;45659;-61
2021/05/31 05:04:06;;;;;;;;;0.00;0.00;;;;;15.62;49.50;101458.00;5058590;28;46635;-61
2021/05/31 05:06:32;;;;;;;;;0.00;0.00;;;;;15.64;49.67;101464.00;5059942;28;45440;-61
2021/05/31 05:08:57;;;;;;;;;0.75;0.00;;;;;15.64;49.89;101453.41;5059788;28;45461;-61
2021/05/31 05:11:23;;;;;;;;;0.00;0.00;;;;;15.68;49.58;101460.94;5052381;28;45397;-62
2021/05/31 05:13:52;;;;;;;;;1.00;1.00;;;;;15.68;49.72;101458.31;5054035;28;45580;-63
2021/05/31 05:16:17;;;;;;;;;0.00;0.00;;;;;15.73;49.58;101455.28;5059679;28;45457;-62
2021/05/31 05:18:48;;;;;;;;;0.00;0.00;;;;;15.74;49.18;101455.16;5055801;28;45398;-62
2021/05/31 05:21:16;;;;;;;;;0.00;0.00;;;;;15.77;49.78;101464.63;5059630;28;45438;-63
2021/05/31 05:23:42;;;;;;;;;0.00;0.00;;;;;15.80;49.45;101451.09;5046723;28;46318;-61
2021/05/31 05:26:07;;;;;;;;;0.00;0.00;;;;;15.83;49.49;101445.56;5048847;28;46167;-61
2021/05/31 05:28:33;;;;;;;;;0.00;0.00;;;;;15.85;49.34;101453.34;5043199;28;45456;-62
2021/05/31 05:31:03;;;;;;;;;1.00;0.00;;;;;15.86;49.21;101455.03;5039488;28;45488;-63
2021/05/31 05:33:29;;;;;;;;;0.00;0.00;;;;;15.90;49.00;101451.16;5050515;28;46192;-62
2021/05/31 05:36:03;;;;;;;;;0.00;0.00;;;;;15.94;48.89;101458.69;5039202;28;45424;-61
2021/05/31 05:41:24;;;;;;;;;0.00;0.00;;;;;16.06;48.39;101454.06;5038015;28;45489;-62
2021/05/31 05:44:24;;;;;;;;;0.00;0.00;;;;;16.16;48.37;101462.06;5041825;28;46139;-62
2021/05/31 05:48:57;;;;;;;;;3.00;0.75;;;;;16.29;47.69;101448.53;5039594;28;45421;-61
2021/05/31 05:51:22;;;;;;;;;0.00;0.00;;;;;16.38;47.68;101463.59;5043345;28;45359;-60
2021/05/31 05:53:48;;;;;;;;;0.00;0.00;;;;;16.46;47.38;101453.13;5041915;28;46189;-62
2021/05/31 05:56:16;;;;;;;;;0.00;0.00;;;;;16.53;47.44;101456.91;5034417;28;45502;-60
2021/05/31 05:58:42;;;;;;;;;0.00;0.00;;;;;16.57;47.13;101460.13;5039774;28;45407;-61
2021/05/31 06:01:10;;;;;;;;;0.00;0.00;;;;;16.60;46.95;101449.22;5044571;28;45641;-60
2021/05/31 06:03:35;;;;;;;;;0.00;0.00;;;;;16.73;46.91;101452.41;5046881;28;45872;-60
2021/05/31 06:06:00;;;;;;;;;0.00;0.00;;;;;17.10;46.11;101451.66;5044613;28;45414;-61
2021/05/31 06:08:26;;;;;;;;;0.00;0.00;;;;;17.59;44.83;101454.13;5040852;28;45141;-60
2021/05/31 06:10:52;;;;;;;;;0.00;0.00;;;;;18.02;44.54;101444.69;5046709;28;45644;-62
2021/05/31 06:13:18;;;;;;;;;0.00;0.00;;;;;18.48;43.33;101444.59;5048488;28;46463;-61
2021/05/31 06:15:43;;;;;;;;;0.00;0.00;;;;;18.89;42.83;101445.75;5052433;28;45435;-60
2021/05/31 06:18:09;;;;;;;;;0.00;0.00;;;;;19.27;42.42;101446.31;5050775;28;45516;-60
2021/05/31 06:20:35;;;;;;;;;1.00;0.00;;;;;19.58;40.32;101443.94;5035447;28;45803;-61
2021/05/31 06:23:05;;;;;;;;;0.00;0.00;;;;;19.99;40.48;101443.25;5058307;28;46209;-61
2021/05/31 06:25:31;;;;;;;;;0.25;0.25;;;;;20.36;40.21;101448.13;5037589;28;46493;-63
2021/05/31 06:27:56;;;;;;;;;0.00;0.00;;;;;20.67;38.73;101450.19;5044104;28;45431;-61
2021/05/31 06:30:22;;;;;;;;;0.00;0.00;;;;;21.00;39.23;101448.28;5056703;28;45514;-60
2021/05/31 06:32:49;;;;;;;;;0.00;0.00;;;;;21.38;38.19;101445.00;5051992;28;45677;-61
2021/05/31 06:35:15;;;;;;;;;0.00;0.00;;;;;21.69;38.23;101448.56;5044350;28;45604;-61
2021/05/31 06:37:40;;;;;;;;;0.00;0.00;;;;;21.90;35.73;101450.63;5054880;28;45384;-61
2021/05/31 06:40:11;;;;;;;;;0.00;0.00;;;;;22.01;37.00;101449.38;5053038;28;45343;-61
2021/05/31 06:42:38;;;;;;;;;0.00;0.00;;;;;22.28;36.16;101445.38;5057350;28;46470;-61
2021/05/31 06:45:07;;;;;;;;;0.00;0.00;;;;;22.42;36.04;101449.13;5049193;28;45601;-63
2021/05/31 06:47:32;;;;;;;;;0.00;0.00;;;;;22.54;35.02;101446.84;5055151;28;45461;-62
2021/05/31 06:49:58;;;;;;;;;0.00;0.00;;;;;22.72;35.27;101441.13;5044507;28;45524;-62
2021/05/31 06:52:23;;;;;;;;;0.00;0.00;;;;;23.03;34.79;101443.72;5046199;28;45354;-62
2021/05/31 06:54:48;;;;;;;;;0.00;0.00;;;;;23.26;33.33;101440.09;5042417;28;45346;-62
2021/05/31 06:57:14;;;;;;;;;0.00;0.00;;;;;23.41;33.12;101434.72;5055255;28;45598;-61
2021/05/31 06:59:39;;;;;;;;;0.00;0.00;;;;;23.64;33.05;101432.75;5045681;28;45243;-59
2021/05/31 07:02:04;;;;;;;;;0.00;0.00;;;;;23.81;31.37;101440.59;5051643;28;45528;-63
2021/05/31 07:04:30;;;;;;;;;0.00;0.00;;;;;23.82;31.55;101440.41;5045808;28;45514;-60
2021/05/31 07:06:55;;;;;;;;;0.00;0.00;;;;;24.04;31.11;101435.06;5042727;28;45296;-63
2021/05/31 07:09:20;;;;;;;;;0.00;0.00;;;;;24.22;29.50;101426.56;5042311;28;45319;-67
2021/05/31 07:11:47;;;;;;;;;0.00;0.00;;;;;24.33;29.84;101428.72;5040946;28;46418;-62
2021/05/31 07:14:18;;;;;;;;;0.00;0.00;;;;;24.37;29.66;101424.63;5042054;28;45393;-62
2021/05/31 07:16:44;;;;;;;;;0.00;0.00;;;;;24.54;29.96;101431.41;5041262;28;45238;-60
2021/05/31 07:19:11;;;;;;;;;0.00;0.00;;;;;24.84;29.14;101416.94;5040929;28;45677;-62
2021/05/31 07:21:39;;;;;;;;;0.00;0.00;;;;;25.30;29.15;101416.41;5050811;28;46096;-61
2021/05/31 07:24:06;;;;;;;;;0.00;0.00;;;;;25.71;28.35;101418.22;5045887;28;45482;-60
2021/05/31 07:26:32;;;;;;;;;0.75;0.00;;;;;26.01;25.32;101416.03;5047203;28;45407;-62
2021/05/31 07:28:57;;;;;;;;;0.00;0.00;;;;;26.08;25.42;101421.44;5048242;28;45320;-63
2021/05/31 07:31:22;;;;;;;;;0.00;0.00;;;;;26.26;27.03;101427.00;5040984;28;45402;-60
2021/05/31 07:33:48;;;;;;;;;0.00;0.00;;;;;26.57;25.54;101421.06;5043704;28;45397;-62
2021/05/31 07:36:15;;;;;;;;;0.00;0.00;;;;;26.56;24.62;101424.75;5044470;28;45386;-60
2021/05/31 07:38:41;;;;;;;;;0.00;0.00;;;;;26.50;25.11;101417.50;5042410;28;45512;-62
2021/05/31 07:41:06;;;;;;;;;0.00;0.00;;;;;26.67;25.69;101422.47;5042311;28;47227;-59
2021/05/31 07:43:31;;;;;;;;;0.00;0.00;;;;;27.05;24.92;101422.63;5060135;28;45423;-61
2021/05/31 07:45:57;;;;;;;;;0.00;0.00;;;;;27.09;25.07;101421.16;5049807;28;45442;-64
2021/05/31 07:48:22;;;;;;;;;0.00;0.00;;;;;27.45;25.60;101419.81;5054887;28;45469;-60
2021/05/31 07:50:48;;;;;;;;;0.00;0.00;;;;;27.88;24.67;101423.75;5060434;28;47627;-61
2021/05/31 07:53:19;;;;;;;;;0.00;0.00;;;;;28.13;24.85;101419.22;5060458;28;45402;-60
2021/05/31 07:55:45;;;;;;;;;0.00;0.00;;;;;28.15;23.67;101417.13;5060306;28;45491;-60
2021/05/31 07:58:11;;;;;;;;;0.00;0.00;;;;;28.18;23.62;101416.66;5053994;28;45472;-60
2021/05/31 08:00:37;;;;;;;;;0.00;0.00;;;;;28.17;22.79;101416.91;5053318;28;45655;-61
2021/05/31 08:03:02;;;;;;;;;0.00;0.00;;;;;28.26;23.54;101415.59;5054827;28;45498;-60
2021/05/31 08:05:28;;;;;;;;;0.00;0.00;;;;;28.68;23.60;101423.13;5045265;28;45267;-60
2021/05/31 08:07:54;;;;;;;;;0.00;0.00;;;;;29.02;22.81;101422.56;5048613;28;45416;-61
2021/05/31 08:10:19;;;;;;;;;0.00;0.00;;;;;29.54;23.28;101408.63;5056988;28;45499;-61
2021/05/31 08:12:46;;;;;;;;;0.00;0.00;;;;;30.10;22.77;101422.00;5045101;28;45355;-59
2021/05/31 08:15:12;;;;;;;;;0.00;0.00;;;;;30.44;21.34;101415.03;5048236;28;46741;-60
2021/05/31 08:17:38;;;;;;;;;0.00;0.00;;;;;30.81;21.89;101418.28;5058699;28;45361;-61
2021/05/31 08:20:06;;;;;;;;;0.00;0.00;;;;;31.03;20.22;101402.25;5055997;28;46526;-60
2021/05/31 08:22:31;;;;;;;;;0.00;0.00;;;;;30.74;20.19;101405.94;5045923;28;45352;-60
2021/05/31 08:24:56;;;;;;;;;0.00;0.00;;;;;30.43;20.04;101397.94;5050839;28;45738;-60
2021/05/31 08:27:21;;;;;;;;;0.00;0.00;;;;;30.55;20.28;101394.41;5043799;28;45747;-60
2021/05/31 08:29:47;;;;;;;;;0.00;0.00;;;;;30.51;18.93;101399.47;5059520;28;47381;-60
2021/05/31 08:32:12;;;;;;;;;0.00;0.00;;;;;30.91;20.28;101390.63;5060197;28;45295;-60
2021/05/31 08:34:38;;;;;;;;;0.00;0.00;;;;;31.51;19.08;101402.13;5058746;28;45724;-61
2021/05/31 08:37:03;;;;;;;;;0.00;0.00;;;;;32.35;19.49;101391.34;5059014;28;45445;-61
2021/05/31 08:39:28;;;;;;;;;0.00;0.00;;;;;33.76;16.85;101377.31;5054962;28;46172;-61
2021/05/31 08:41:54;;;;;;;;;0.00;0.00;;;;;34.96;17.16;101381.41;5045220;28;45361;-60
2021/05/31 08:44:19;;;;;;;;;0.00;0.00;;;;;36.23;14.95;101374.50;5039132;28;45706;-60
2021/05/31 08:46:45;;;;;;;;;0.00;0.00;;;;;37.62;15.35;101375.53;5039070;28;45367;-60
2021/05/31 08:49:10;;;;;;;;;0.00;0.00;;;;;39.21;13.97;101384.03;5038840;28;46194;-62
2021/05/31 08:51:37;;;;;;;;;0.00;0.00;;;;;40.73;11.86;101376.19;5046577;28;45500;-61
2021/05/31 08:54:04;;;;;;;;;0.00;0.00;;;;;42.06;12.12;101377.81;5042984;28;45440;-61
2021/05/31 08:56:31;;;;;;;;;0.00;0.00;;;;;42.88;10.99;101378.25;5036095;28;45457;-61
2021/05/31 08:58:57;;;;;;;;;0.00;0.00;;;;;43.96;10.61;101375.59;5042991;28;47541;-62
2021/05/31 09:01:24;;;;;;;;;0.00;0.00;;;;;45.47;9.39;101378.72;5037343;28;45283;-63
2021/05/31 09:03:52;;;;;;;;;0.00;0.00;;;;;46.35;9.33;101382.97;5039385;28;45485;-62
2021/05/31 09:06:17;;;;;;;;;0.00;0.00;;;;;46.96;8.80;101375.72;5038418;28;45400;-63
2021/05/31 09:09:01;;;;;;;;;0.00;0.00;;;;;46.78;6.43;101369.66;5040570;28;46818;-63
2021/05/31 09:11:28;;;;;;;;;0.00;0.00;;;;;46.40;8.08;101376.41;5038695;28;45979;-62
2021/05/31 09:13:55;;;;;;;;;0.00;0.00;;;;;46.17;6.65;101368.50;5042770;28;45468;-62
2021/05/31 09:16:26;;;;;;;;;0.00;0.00;;;;;45.70;7.31;101377.22;5037980;28;45613;-61
2021/05/31 09:18:54;;;;;;;;;0.00;0.00;;;;;45.96;8.33;101368.56;5039870;28;45624;-62
2021/05/31 09:21:25;;;;;;;;;0.00;0.00;;;;;47.34;8.31;101363.31;5039109;28;45508;-61
2021/05/31 09:24:02;;;;;;;;;0.00;0.00;;;;;48.00;7.61;101365.50;5041596;28;45549;-62
2021/05/31 09:26:28;;;;;;;;;0.75;0.00;;;;;47.46;6.26;101361.28;5043184;28;45524;-63
2021/05/31 09:29:03;;;;;;;;;0.00;0.00;;;;;46.95;6.62;101354.66;5021328;28;46170;-62
2021/05/31 09:31:30;;;;;;;;;0.00;0.00;;;;;45.75;6.68;101368.69;5047997;28;46342;-62
2021/05/31 09:34:00;;;;;;;;;0.00;0.00;;;;;44.83;8.14;101359.38;5041380;28;45393;-62
2021/05/31 09:36:27;;;;;;;;;0.00;0.00;;;;;43.83;8.24;101352.53;5042221;28;45321;-61
2021/05/31 09:38:52;;;;;;;;;0.00;0.00;;;;;42.91;9.35;101352.72;5048027;28;46342;-62
2021/05/31 09:41:29;;;;;;;;;0.00;0.00;;;;;42.80;8.23;101349.44;5047037;28;45345;-61
2021/05/31 09:43:56;;;;;;;;;0.00;0.00;;;;;42.90;8.83;101356.66;5041988;28;45530;-60
2021/05/31 09:46:42;;;;;;;;;0.00;0.00;;;;;42.48;9.12;101351.50;5042712;28;45684;-61
2021/05/31 09:49:14;;;;;;;;;0.00;0.00;;;;;43.30;9.52;101348.19;5043025;28;45704;-61
2021/05/31 09:52:06;;;;;;;;;0.00;0.00;;;;;43.55;8.25;101344.59;5044174;28;45457;-61
2021/05/31 09:54:33;;;;;;;;;0.00;0.00;;;;;43.39;8.05;101347.06;5047504;28;45417;-62
2021/05/31 09:57:00;;;;;;;;;0.00;0.00;;;;;42.81;8.66;101349.13;5046344;28;45474;-62
2021/05/31 09:59:30;;;;;;;;;0.00;0.00;;;;;42.20;9.14;101346.19;5040074;28;45597;-61
2021/05/31 10:02:02;;;;;;;;;0.00;0.00;;;;;41.44;9.79;101351.72;5041905;28;45908;-62
2021/05/31 10:06:59;;;;;;;;;0.00;0.00;;;;;40.05;10.62;101351.09;5040101;28;45406;-63
2021/05/31 10:09:27;;;;;;;;;0.00;0.00;;;;;39.72;10.14;101353.00;5043740;28;45660;-62
2021/05/31 10:11:53;;;;;;;;;0.00;0.00;;;;;38.88;10.64;101357.28;5040644;28;45873;-62
2021/05/31 10:14:19;;;;;;;;;0.00;0.00;;;;;38.48;11.19;101350.34;5061227;28;45307;-62
2021/05/31 10:16:46;;;;;;;;;1.00;1.00;;;;;38.93;10.70;101359.13;5057041;28;45344;-62
2021/05/31 10:19:12;;;;;;;;;0.00;0.00;;;;;39.98;11.17;101337.72;5054350;28;46556;-62
2021/05/31 10:21:37;;;;;;;;;0.00;0.00;;;;;41.77;10.25;101346.78;5062619;28;45307;-62
2021/05/31 10:24:03;;;;;;;;;0.00;0.00;;;;;43.66;9.67;101345.06;5060477;28;45474;-62
2021/05/31 10:26:35;;;;;;;;;0.00;0.00;;;;;45.32;8.17;101341.38;5060500;28;45187;-61
2021/05/31 10:29:01;;;;;;;;;0.50;0.00;;;;;46.31;7.03;101345.97;5058152;28;46605;-60
2021/05/31 10:31:27;;;;;;;;;0.00;0.00;;;;;46.48;7.07;101332.97;5061858;28;45260;-60
2021/05/31 10:33:58;;;;;;;;;0.00;0.00;;;;;47.20;7.16;101336.75;5050298;28;45353;-62
2021/05/31 10:36:24;;;;;;;;;0.00;0.00;;;;;47.95;6.33;101334.31;5049198;28;45387;-62
2021/05/31 10:38:51;;;;;;;;;0.00;0.00;;;;;48.19;5.70;101345.28;5039687;28;47543;-62
2021/05/31 10:41:23;;;;;;;;;0.00;0.00;;;;;47.30;5.59;101342.94;5062488;28;45314;-61
2021/05/31 10:43:56;;;;;;;;;0.00;0.00;;;;;46.77;6.54;101341.06;5057943;28;45588;-63
2021/05/31 10:46:28;;;;;;;;;0.00;0.00;;;;;45.25;6.33;101339.16;5055662;28;45535;-61
2021/05/31 10:48:53;;;;;;;;;0.00;0.00;;;;;43.58;8.29;101345.88;5051936;28;46254;-61
2021/05/31 10:51:29;;;;;;;;;0.00;0.00;;;;;42.16;8.65;101328.66;5060707;28;45477;-61
2021/05/31 10:53:54;;;;;;;;;0.00;0.00;;;;;40.77;9.60;101330.41;5054942;28;45262;-62
2021/05/31 10:56:20;;;;;;;;;0.00;0.00;;;;;39.11;9.56;101324.56;5061933;28;45177;-61
2021/05/31 10:58:52;;;;;;;;;0.00;0.00;;;;;38.02;10.82;101313.25;5061414;28;45794;-61
2021/05/31 11:01:28;;;;;;;;;0.00;0.00;;;;;37.24;11.21;101322.41;5061878;28;45254;-61
2021/05/31 11:04:02;;;;;;;;;0.00;0.00;;;;;36.63;11.54;101318.03;5061264;28;45537;-61
2021/05/31 11:06:34;;;;;;;;;0.00;0.00;;;;;35.74;12.30;101308.34;5062225;28;45462;-62
2021/05/31 11:09:09;;;;;;;;;0.75;0.00;;;;;35.22;12.54;101317.59;5060893;28;46442;-61
2021/05/31 11:11:50;;;;;;;;;0.00;0.00;;;;;34.66;12.69;101309.25;5052449;28;45296;-62
2021/05/31 11:14:29;;;;;;;;;0.00;0.00;;;;;34.51;13.30;101316.25;5056182;28;45379;-61
2021/05/31 11:16:56;;;;;;;;;0.00;0.00;;;;;34.54;13.55;101309.44;5061119;28;45407;-61
2021/05/31 11:19:39;;;;;;;;;0.00;0.00;;;;;34.23;13.44;101301.09;5060768;28;45538;-61
2021/05/31 11:22:25;;;;;;;;;0.00;0.00;;;;;34.05;14.30;101291.44;5060457;28;45542;-62
2021/05/31 11:25:03;;;;;;;;;0.00;0.00;;;;;33.72;13.86;101289.84;5057442;28;45383;-62
2021/05/31 11:27:36;;;;;;;;;0.00;0.00;;;;;32.98;14.99;101288.56;5054930;28;45197;-62
2021/05/31 11:30:06;;;;;;;;;0.00;0.00;;;;;32.22;15.25;101293.84;5048547;28;45542;-62
2021/05/31 11:32:31;;;;;;;;;0.00;0.00;;;;;31.69;15.51;101274.28;5060820;28;45511;-62
2021/05/31 11:34:59;;;;;;;;;0.00;0.00;;;;;31.67;16.29;101271.81;5060528;28;45738;-62
2021/05/31 11:37:26;;;;;;;;;0.00;0.00;;;;;31.77;16.21;101276.59;5061034;28;45453;-61
2021/05/31 11:39:53;;;;;;;;;0.00;0.00;;;;;31.71;16.59;101283.03;5060581;28;46764;-62
2021/05/31 11:42:19;;;;;;;;;0.00;0.00;;;;;31.31;15.81;101277.69;5060428;28;45232;-62
2021/05/31 11:44:51;;;;;;;;;0.00;0.00;;;;;31.16;16.20;101267.38;5061074;28;45219;-62
2021/05/31 11:47:25;;;;;;;;;0.00;0.00;;;;;31.00;16.27;101258.97;5061451;28;45390;-63
2021/05/31 11:49:51;;;;;;;;;0.00;0.00;;;;;30.65;16.83;101261.78;5060781;28;46235;-62